sensor_id;sensor_type;location;lat;lon;timestamp;temperature;humidity
55008;DHT22;40902;45.116;21.296;2023-10-08T00:02:17;538.20;2406.40
55008;DHT22;40902;45.116;21.296;2023-10-08T00:04:48;538.20;2406.40
55008;DHT22;40902;45.116;21.296;2023-10-08T00:07:22;538.20;2406.40
55008;DHT22;40902;45.116;21.296;2023-10-08T00:09:50;538.20;2406.40
55008;DHT22;40902;45.116;21.296;2023-10-08T00:12:17;538.20;2406.40
55008;DHT22;40902;45.116;21.296;2023-10-08T00:14:43;538.20;2406.40
55008;DHT22;40902;45.116;21.296;2023-10-08T00:17:11;538.20;2406.40
55008;DHT22;40902;45.116;21.296;2023-10-08T00:19:37;538.20;2406.40
55008;DHT22;40902;45.116;21.296;2023-10-08T00:22:05;538.20;2406.40
55008;DHT22;40902;45.116;21.296;2023-10-08T00:24:33;538.20;2406.40
55008;DHT22;40902;45.116;21.296;2023-10-08T00:26:59;538.20;2406.40
55008;DHT22;40902;45.116;21.296;2023-10-08T00:29:32;538.20;2406.40
55008;DHT22;40902;45.116;21.296;2023-10-08T00:31:58;538.20;2406.40
55008;DHT22;40902;45.116;21.296;2023-10-08T00:34:24;538.20;2406.40
55008;DHT22;40902;45.116;21.296;2023-10-08T00:36:51;538.20;2406.40
55008;DHT22;40902;45.116;21.296;2023-10-08T00:39:17;538.20;2406.40
55008;DHT22;40902;45.116;21.296;2023-10-08T00:41:51;538.20;2406.40
55008;DHT22;40902;45.116;21.296;2023-10-08T00:44:17;538.20;2406.40
55008;DHT22;40902;45.116;21.296;2023-10-08T00:46:59;538.20;2406.40
55008;DHT22;40902;45.116;21.296;2023-10-08T00:49:30;538.20;2406.40
55008;DHT22;40902;45.116;21.296;2023-10-08T00:52:06;538.20;2406.40
55008;DHT22;40902;45.116;21.296;2023-10-08T00:54:35;538.10;2406.40
55008;DHT22;40902;45.116;21.296;2023-10-08T00:57:16;538.20;2406.40
55008;DHT22;40902;45.116;21.296;2023-10-08T00:59:47;538.10;2406.40
55008;DHT22;40902;45.116;21.296;2023-10-08T01:02:24;538.10;2406.40
55008;DHT22;40902;45.116;21.296;2023-10-08T01:04:51;538.10;2406.40
55008;DHT22;40902;45.116;21.296;2023-10-08T01:07:17;538.10;2406.40
55008;DHT22;40902;45.116;21.296;2023-10-08T01:09:44;538.10;2406.40
55008;DHT22;40902;45.116;21.296;2023-10-08T01:14:53;538.10;2406.40
55008;DHT22;40902;45.116;21.296;2023-10-08T01:17:21;538.10;2406.40
55008;DHT22;40902;45.116;21.296;2023-10-08T01:19:50;538.10;2406.40
55008;DHT22;40902;45.116;21.296;2023-10-08T01:22:22;538.10;2406.40
55008;DHT22;40902;45.116;21.296;2023-10-08T01:24:49;538.10;2406.40
55008;DHT22;40902;45.116;21.296;2023-10-08T01:27:15;538.10;2406.40
55008;DHT22;40902;45.116;21.296;2023-10-08T01:29:48;538.10;2406.40
55008;DHT22;40902;45.116;21.296;2023-10-08T01:32:16;538.10;2406.40
55008;DHT22;40902;45.116;21.296;2023-10-08T01:34:43;538.10;2406.40
55008;DHT22;40902;45.116;21.296;2023-10-08T01:37:15;538.10;2406.40
55008;DHT22;40902;45.116;21.296;2023-10-08T01:39:47;538.10;2406.40
55008;DHT22;40902;45.116;21.296;2023-10-08T01:42:16;538.10;2406.40
55008;DHT22;40902;45.116;21.296;2023-10-08T01:44:47;538.10;2406.40
55008;DHT22;40902;45.116;21.296;2023-10-08T01:47:16;538.10;2406.40
55008;DHT22;40902;45.116;21.296;2023-10-08T01:49:43;538.10;2406.40
55008;DHT22;40902;45.116;21.296;2023-10-08T01:52:12;538.10;2406.40
55008;DHT22;40902;45.116;21.296;2023-10-08T01:54:50;538.10;2406.40
55008;DHT22;40902;45.116;21.296;2023-10-08T01:57:19;538.10;2406.40
55008;DHT22;40902;45.116;21.296;2023-10-08T01:59:45;538.10;2406.40
55008;DHT22;40902;45.116;21.296;2023-10-08T02:02:11;538.00;2406.40
55008;DHT22;40902;45.116;21.296;2023-10-08T02:04:38;538.10;2406.40
55008;DHT22;40902;45.116;21.296;2023-10-08T02:07:04;538.00;2406.40
55008;DHT22;40902;45.116;21.296;2023-10-08T02:09:33;538.00;2406.40
55008;DHT22;40902;45.116;21.296;2023-10-08T02:11:59;538.00;2406.40
55008;DHT22;40902;45.116;21.296;2023-10-08T02:14:25;538.00;2406.40
55008;DHT22;40902;45.116;21.296;2023-10-08T02:16:52;538.10;2406.40
55008;DHT22;40902;45.116;21.296;2023-10-08T02:19:22;538.10;2406.40
55008;DHT22;40902;45.116;21.296;2023-10-08T02:21:57;538.00;2406.40
55008;DHT22;40902;45.116;21.296;2023-10-08T02:24:24;538.00;2406.40
55008;DHT22;40902;45.116;21.296;2023-10-08T02:26:54;538.00;2406.40
55008;DHT22;40902;45.116;21.296;2023-10-08T02:29:30;538.00;2406.40
55008;DHT22;40902;45.116;21.296;2023-10-08T02:31:58;538.00;2406.40
55008;DHT22;40902;45.116;21.296;2023-10-08T02:34:25;538.00;2406.40
55008;DHT22;40902;45.116;21.296;2023-10-08T02:36:50;538.00;2406.40
55008;DHT22;40902;45.116;21.296;2023-10-08T02:39:17;538.00;2406.40
55008;DHT22;40902;45.116;21.296;2023-10-08T02:41:48;538.00;2406.40
55008;DHT22;40902;45.116;21.296;2023-10-08T02:44:18;538.00;2406.40
55008;DHT22;40902;45.116;21.296;2023-10-08T02:46:47;538.00;2406.40
55008;DHT22;40902;45.116;21.296;2023-10-08T02:49:18;538.00;2406.40
55008;DHT22;40902;45.116;21.296;2023-10-08T02:51:47;538.00;2406.40
55008;DHT22;40902;45.116;21.296;2023-10-08T02:54:18;538.00;2406.40
55008;DHT22;40902;45.116;21.296;2023-10-08T02:56:47;538.00;2406.40
55008;DHT22;40902;45.116;21.296;2023-10-08T02:59:16;538.00;2406.40
55008;DHT22;40902;45.116;21.296;2023-10-08T03:01:42;538.00;2406.40
55008;DHT22;40902;45.116;21.296;2023-10-08T03:04:09;538.00;2406.40
55008;DHT22;40902;45.116;21.296;2023-10-08T03:06:47;538.00;2406.40
55008;DHT22;40902;45.116;21.296;2023-10-08T03:09:20;538.00;2406.40
55008;DHT22;40902;45.116;21.296;2023-10-08T03:11:51;538.00;2406.40
55008;DHT22;40902;45.116;21.296;2023-10-08T03:14:18;538.00;2406.40
55008;DHT22;40902;45.116;21.296;2023-10-08T03:16:51;538.00;2406.40
55008;DHT22;40902;45.116;21.296;2023-10-08T03:19:18;538.00;2406.40
55008;DHT22;40902;45.116;21.296;2023-10-08T03:21:46;538.00;2406.40
55008;DHT22;40902;45.116;21.296;2023-10-08T03:24:21;538.00;2406.40
55008;DHT22;40902;45.116;21.296;2023-10-08T03:26:59;538.00;2406.40
55008;DHT22;40902;45.116;21.296;2023-10-08T03:29:34;538.00;2406.40
55008;DHT22;40902;45.116;21.296;2023-10-08T03:32:08;538.00;2406.40
55008;DHT22;40902;45.116;21.296;2023-10-08T03:34:38;538.00;2406.40
55008;DHT22;40902;45.116;21.296;2023-10-08T03:37:08;537.90;2406.40
55008;DHT22;40902;45.116;21.296;2023-10-08T03:39:35;538.00;2406.40
55008;DHT22;40902;45.116;21.296;2023-10-08T03:42:21;538.00;2406.40
55008;DHT22;40902;45.116;21.296;2023-10-08T03:44:51;537.90;2406.40
55008;DHT22;40902;45.116;21.296;2023-10-08T03:47:18;538.00;2406.40
55008;DHT22;40902;45.116;21.296;2023-10-08T03:49:47;537.90;2406.40
55008;DHT22;40902;45.116;21.296;2023-10-08T03:52:16;537.90;2406.40
55008;DHT22;40902;45.116;21.296;2023-10-08T03:54:43;538.00;2406.40
55008;DHT22;40902;45.116;21.296;2023-10-08T03:57:14;538.00;2406.40
55008;DHT22;40902;45.116;21.296;2023-10-08T03:59:50;537.90;2406.40
55008;DHT22;40902;45.116;21.296;2023-10-08T04:02:20;538.00;2406.40
55008;DHT22;40902;45.116;21.296;2023-10-08T04:05:05;538.00;2406.40
55008;DHT22;40902;45.116;21.296;2023-10-08T04:07:43;538.00;2406.40
55008;DHT22;40902;45.116;21.296;2023-10-08T04:10:24;538.00;2406.40
55008;DHT22;40902;45.116;21.296;2023-10-08T04:13:08;538.00;2406.40
55008;DHT22;40902;45.116;21.296;2023-10-08T04:15:38;537.90;2406.40
55008;DHT22;40902;45.116;21.296;2023-10-08T04:18:11;537.90;2406.40
55008;DHT22;40902;45.116;21.296;2023-10-08T04:20:38;537.90;2406.40
55008;DHT22;40902;45.116;21.296;2023-10-08T04:23:06;537.90;2406.40
55008;DHT22;40902;45.116;21.296;2023-10-08T04:25:39;537.90;2406.40
55008;DHT22;40902;45.116;21.296;2023-10-08T04:28:07;537.90;2406.40
55008;DHT22;40902;45.116;21.296;2023-10-08T04:30:38;537.90;2406.40
55008;DHT22;40902;45.116;21.296;2023-10-08T04:33:07;537.90;2406.40
55008;DHT22;40902;45.116;21.296;2023-10-08T04:35:37;537.90;2406.40
55008;DHT22;40902;45.116;21.296;2023-10-08T04:38:16;537.90;2406.40
55008;DHT22;40902;45.116;21.296;2023-10-08T04:40:45;537.90;2406.40
55008;DHT22;40902;45.116;21.296;2023-10-08T04:43:15;537.90;2406.40
55008;DHT22;40902;45.116;21.296;2023-10-08T04:45:41;537.90;2406.40
55008;DHT22;40902;45.116;21.296;2023-10-08T04:48:08;537.90;2406.40
55008;DHT22;40902;45.116;21.296;2023-10-08T04:50:40;537.90;2406.40
55008;DHT22;40902;45.116;21.296;2023-10-08T04:53:09;537.90;2406.40
55008;DHT22;40902;45.116;21.296;2023-10-08T04:55:35;537.90;2406.40
55008;DHT22;40902;45.116;21.296;2023-10-08T04:58:07;537.90;2406.40
55008;DHT22;40902;45.116;21.296;2023-10-08T05:00:45;537.90;2406.40
55008;DHT22;40902;45.116;21.296;2023-10-08T05:03:20;537.90;2406.40
55008;DHT22;40902;45.116;21.296;2023-10-08T05:05:49;537.90;2406.40
55008;DHT22;40902;45.116;21.296;2023-10-08T05:08:37;537.90;2406.40
55008;DHT22;40902;45.116;21.296;2023-10-08T05:11:23;537.90;2406.40
55008;DHT22;40902;45.116;21.296;2023-10-08T05:14:13;537.80;2406.40
55008;DHT22;40902;45.116;21.296;2023-10-08T05:16:56;537.80;2406.40
55008;DHT22;40902;45.116;21.296;2023-10-08T05:19:42;537.80;2406.40
55008;DHT22;40902;45.116;21.296;2023-10-08T05:22:26;537.80;2406.40
55008;DHT22;40902;45.116;21.296;2023-10-08T05:24:52;537.80;2406.40
55008;DHT22;40902;45.116;21.296;2023-10-08T05:27:52;537.80;2406.40
55008;DHT22;40902;45.116;21.296;2023-10-08T05:30:20;537.80;2406.40
55008;DHT22;40902;45.116;21.296;2023-10-08T05:33:08;537.80;2406.40
55008;DHT22;40902;45.116;21.296;2023-10-08T05:35:44;537.80;2406.40
55008;DHT22;40902;45.116;21.296;2023-10-08T05:38:11;537.80;2406.40
55008;DHT22;40902;45.116;21.296;2023-10-08T05:40:56;537.80;2406.40
55008;DHT22;40902;45.116;21.296;2023-10-08T05:43:34;537.80;2406.40
55008;DHT22;40902;45.116;21.296;2023-10-08T05:46:07;537.80;2406.40
55008;DHT22;40902;45.116;21.296;2023-10-08T05:48:51;537.80;2406.40
55008;DHT22;40902;45.116;21.296;2023-10-08T05:51:42;537.80;2406.40
55008;DHT22;40902;45.116;21.296;2023-10-08T05:59:36;537.80;2406.40
55008;DHT22;40902;45.116;21.296;2023-10-08T06:02:28;537.80;2406.40
55008;DHT22;40902;45.116;21.296;2023-10-08T06:05:05;537.80;2406.40
55008;DHT22;40902;45.116;21.296;2023-10-08T06:07:53;537.80;2406.40
55008;DHT22;40902;45.116;21.296;2023-10-08T06:10:29;537.80;2406.40
55008;DHT22;40902;45.116;21.296;2023-10-08T06:13:06;537.80;2406.40
55008;DHT22;40902;45.116;21.296;2023-10-08T06:18:24;537.80;2406.40
55008;DHT22;40902;45.116;21.296;2023-10-08T06:20:57;537.80;2406.40
55008;DHT22;40902;45.116;21.296;2023-10-08T06:23:27;537.80;2406.40
55008;DHT22;40902;45.116;21.296;2023-10-08T06:25:55;537.80;2406.40
55008;DHT22;40902;45.116;21.296;2023-10-08T06:28:39;537.80;2406.40
55008;DHT22;40902;45.116;21.296;2023-10-08T06:31:06;537.80;2406.40
55008;DHT22;40902;45.116;21.296;2023-10-08T06:33:41;537.80;2406.40
55008;DHT22;40902;45.116;21.296;2023-10-08T06:36:07;537.80;2406.40
55008;DHT22;40902;45.116;21.296;2023-10-08T06:38:42;537.80;2406.40
55008;DHT22;40902;45.116;21.296;2023-10-08T06:41:11;537.80;2406.40
55008;DHT22;40902;45.116;21.296;2023-10-08T06:43:43;537.80;2406.40
55008;DHT22;40902;45.116;21.296;2023-10-08T06:46:12;537.80;2406.40
55008;DHT22;40902;45.116;21.296;2023-10-08T06:48:39;537.80;2406.40
55008;DHT22;40902;45.116;21.296;2023-10-08T06:51:09;537.80;2406.40
55008;DHT22;40902;45.116;21.296;2023-10-08T06:53:42;537.80;2406.40
55008;DHT22;40902;45.116;21.296;2023-10-08T06:56:10;537.80;2406.40
55008;DHT22;40902;45.116;21.296;2023-10-08T06:58:39;537.80;2406.40
55008;DHT22;40902;45.116;21.296;2023-10-08T07:01:04;537.80;2406.40
55008;DHT22;40902;45.116;21.296;2023-10-08T07:03:33;537.80;2406.40
55008;DHT22;40902;45.116;21.296;2023-10-08T07:06:00;537.80;2406.40
55008;DHT22;40902;45.116;21.296;2023-10-08T07:08:32;537.80;2406.40
55008;DHT22;40902;45.116;21.296;2023-10-08T07:11:00;537.80;2406.40
55008;DHT22;40902;45.116;21.296;2023-10-08T07:13:37;537.80;2406.40
55008;DHT22;40902;45.116;21.296;2023-10-08T07:16:05;537.80;2406.40
55008;DHT22;40902;45.116;21.296;2023-10-08T07:18:37;537.80;2406.40
55008;DHT22;40902;45.116;21.296;2023-10-08T07:21:03;537.80;2406.40
55008;DHT22;40902;45.116;21.296;2023-10-08T07:23:37;537.80;2406.40
55008;DHT22;40902;45.116;21.296;2023-10-08T07:26:22;537.80;2406.40
55008;DHT22;40902;45.116;21.296;2023-10-08T07:28:50;537.80;2406.40
55008;DHT22;40902;45.116;21.296;2023-10-08T07:31:21;537.80;2406.40
55008;DHT22;40902;45.116;21.296;2023-10-08T07:33:49;537.80;2406.40
55008;DHT22;40902;45.116;21.296;2023-10-08T07:36:25;537.80;2406.40
55008;DHT22;40902;45.116;21.296;2023-10-08T07:38:52;537.80;2406.40
55008;DHT22;40902;45.116;21.296;2023-10-08T07:41:19;537.80;2406.40
55008;DHT22;40902;45.116;21.296;2023-10-08T07:43:46;537.80;2406.40
55008;DHT22;40902;45.116;21.296;2023-10-08T07:46:23;537.80;2406.40
55008;DHT22;40902;45.116;21.296;2023-10-08T07:48:48;537.80;2406.40
55008;DHT22;40902;45.116;21.296;2023-10-08T07:51:16;537.80;2406.40
55008;DHT22;40902;45.116;21.296;2023-10-08T07:53:43;537.80;2406.40
55008;DHT22;40902;45.116;21.296;2023-10-08T07:56:09;537.80;2406.40
55008;DHT22;40902;45.116;21.296;2023-10-08T07:58:37;537.80;2406.40
55008;DHT22;40902;45.116;21.296;2023-10-08T08:01:07;537.80;2406.40
55008;DHT22;40902;45.116;21.296;2023-10-08T08:03:35;537.80;2406.40
55008;DHT22;40902;45.116;21.296;2023-10-08T08:06:06;537.80;2406.40
55008;DHT22;40902;45.116;21.296;2023-10-08T08:08:33;537.80;2406.40
55008;DHT22;40902;45.116;21.296;2023-10-08T08:11:06;537.80;2406.40
55008;DHT22;40902;45.116;21.296;2023-10-08T08:13:39;537.80;2406.40
55008;DHT22;40902;45.116;21.296;2023-10-08T08:16:08;537.80;2406.40
55008;DHT22;40902;45.116;21.296;2023-10-08T08:18:46;537.80;2406.40
55008;DHT22;40902;45.116;21.296;2023-10-08T08:21:12;537.80;2406.40
55008;DHT22;40902;45.116;21.296;2023-10-08T08:23:45;537.80;2406.40
55008;DHT22;40902;45.116;21.296;2023-10-08T08:26:22;537.80;2406.40
55008;DHT22;40902;45.116;21.296;2023-10-08T08:28:58;537.80;2406.40
55008;DHT22;40902;45.116;21.296;2023-10-08T08:31:25;537.80;2406.40
55008;DHT22;40902;45.116;21.296;2023-10-08T08:33:52;537.80;2406.40
55008;DHT22;40902;45.116;21.296;2023-10-08T08:36:21;537.80;2406.40
55008;DHT22;40902;45.116;21.296;2023-10-08T08:38:47;537.80;2406.40
55008;DHT22;40902;45.116;21.296;2023-10-08T08:41:14;537.80;2406.40
55008;DHT22;40902;45.116;21.296;2023-10-08T08:43:51;537.80;2406.40
55008;DHT22;40902;45.116;21.296;2023-10-08T08:46:34;537.80;2406.40
55008;DHT22;40902;45.116;21.296;2023-10-08T08:49:05;537.80;2406.40
55008;DHT22;40902;45.116;21.296;2023-10-08T08:51:33;537.80;2406.40
55008;DHT22;40902;45.116;21.296;2023-10-08T08:54:04;537.80;2406.40
55008;DHT22;40902;45.116;21.296;2023-10-08T08:56:37;537.90;2406.40
55008;DHT22;40902;45.116;21.296;2023-10-08T08:59:07;537.80;2406.40
55008;DHT22;40902;45.116;21.296;2023-10-08T09:01:38;537.80;2406.40
55008;DHT22;40902;45.116;21.296;2023-10-08T09:04:05;537.80;2406.40
55008;DHT22;40902;45.116;21.296;2023-10-08T09:06:35;537.90;2406.40
55008;DHT22;40902;45.116;21.296;2023-10-08T09:09:06;537.80;2406.40
55008;DHT22;40902;45.116;21.296;2023-10-08T09:11:51;537.90;2406.40
55008;DHT22;40902;45.116;21.296;2023-10-08T09:14:20;537.80;2406.40
55008;DHT22;40902;45.116;21.296;2023-10-08T09:16:47;537.90;2406.40
55008;DHT22;40902;45.116;21.296;2023-10-08T09:19:13;537.90;2406.40
55008;DHT22;40902;45.116;21.296;2023-10-08T09:21:59;537.90;2406.40
55008;DHT22;40902;45.116;21.296;2023-10-08T09:24:24;537.90;2406.40
55008;DHT22;40902;45.116;21.296;2023-10-08T09:26:52;537.90;2406.40
55008;DHT22;40902;45.116;21.296;2023-10-08T09:29:22;537.90;2406.40
55008;DHT22;40902;45.116;21.296;2023-10-08T09:31:55;537.90;2406.40
55008;DHT22;40902;45.116;21.296;2023-10-08T09:34:23;537.90;2406.40
55008;DHT22;40902;45.116;21.296;2023-10-08T09:36:51;538.00;2406.40
55008;DHT22;40902;45.116;21.296;2023-10-08T09:39:19;538.00;2406.40
55008;DHT22;40902;45.116;21.296;2023-10-08T09:41:56;537.90;2406.40
55008;DHT22;40902;45.116;21.296;2023-10-08T09:44:24;538.00;2406.40
55008;DHT22;40902;45.116;21.296;2023-10-08T09:49:31;537.90;2406.40
55008;DHT22;40902;45.116;21.296;2023-10-08T09:52:03;538.00;2406.40
55008;DHT22;40902;45.116;21.296;2023-10-08T09:55:06;538.00;2406.40
55008;DHT22;40902;45.116;21.296;2023-10-08T09:57:24;538.00;2406.40
55008;DHT22;40902;45.116;21.296;2023-10-08T09:59:52;538.00;2406.40
55008;DHT22;40902;45.116;21.296;2023-10-08T10:02:19;538.00;2406.40
55008;DHT22;40902;45.116;21.296;2023-10-08T10:04:51;538.00;2406.40
55008;DHT22;40902;45.116;21.296;2023-10-08T10:07:18;538.00;2406.40
55008;DHT22;40902;45.116;21.296;2023-10-08T10:09:45;538.00;2406.40
55008;DHT22;40902;45.116;21.296;2023-10-08T10:12:25;538.00;2406.40
55008;DHT22;40902;45.116;21.296;2023-10-08T10:14:54;538.10;2406.40
55008;DHT22;40902;45.116;21.296;2023-10-08T10:17:27;538.10;2406.40
55008;DHT22;40902;45.116;21.296;2023-10-08T10:22:34;538.10;2406.40
55008;DHT22;40902;45.116;21.296;2023-10-08T10:25:01;538.10;2406.40
55008;DHT22;40902;45.116;21.296;2023-10-08T10:30:30;538.10;2406.40
55008;DHT22;40902;45.116;21.296;2023-10-08T10:32:59;538.10;2406.40
55008;DHT22;40902;45.116;21.296;2023-10-08T10:35:26;538.10;2406.40
55008;DHT22;40902;45.116;21.296;2023-10-08T10:37:53;538.10;2406.40
55008;DHT22;40902;45.116;21.296;2023-10-08T10:40:24;538.20;2406.40
55008;DHT22;40902;45.116;21.296;2023-10-08T10:43:06;538.20;2406.40
55008;DHT22;40902;45.116;21.296;2023-10-08T10:45:42;538.20;2406.40
55008;DHT22;40902;45.116;21.296;2023-10-08T10:48:09;538.20;2406.40
55008;DHT22;40902;45.116;21.296;2023-10-08T10:50:45;538.20;2406.40
55008;DHT22;40902;45.116;21.296;2023-10-08T10:53:37;538.20;2406.40
55008;DHT22;40902;45.116;21.296;2023-10-08T10:56:23;538.20;2406.40
55008;DHT22;40902;45.116;21.296;2023-10-08T10:59:03;538.20;2406.40
55008;DHT22;40902;45.116;21.296;2023-10-08T11:01:48;538.20;2406.40
55008;DHT22;40902;45.116;21.296;2023-10-08T11:04:18;538.20;2406.40
55008;DHT22;40902;45.116;21.296;2023-10-08T11:06:48;538.30;2406.40
55008;DHT22;40902;45.116;21.296;2023-10-08T11:09:16;538.30;2406.40
55008;DHT22;40902;45.116;21.296;2023-10-08T11:11:48;538.30;2406.40
55008;DHT22;40902;45.116;21.296;2023-10-08T11:14:20;538.30;2406.40
55008;DHT22;40902;45.116;21.296;2023-10-08T11:16:47;538.30;2380.80
55008;DHT22;40902;45.116;21.296;2023-10-08T11:19:19;538.30;2380.80
55008;DHT22;40902;45.116;21.296;2023-10-08T11:21:51;538.30;2380.80
55008;DHT22;40902;45.116;21.296;2023-10-08T11:24:29;538.30;2380.80
55008;DHT22;40902;45.116;21.296;2023-10-08T11:27:01;538.30;2406.40
55008;DHT22;40902;45.116;21.296;2023-10-08T11:29:47;538.40;2380.80
55008;DHT22;40902;45.116;21.296;2023-10-08T11:32:15;538.40;2380.80
55008;DHT22;40902;45.116;21.296;2023-10-08T11:34:58;538.40;2380.80
55008;DHT22;40902;45.116;21.296;2023-10-08T11:37:30;538.40;2380.80
55008;DHT22;40902;45.116;21.296;2023-10-08T11:39:59;538.40;2380.80
55008;DHT22;40902;45.116;21.296;2023-10-08T11:42:34;538.40;2380.80
55008;DHT22;40902;45.116;21.296;2023-10-08T11:45:00;538.40;2380.80
55008;DHT22;40902;45.116;21.296;2023-10-08T11:47:46;538.40;2380.80
55008;DHT22;40902;45.116;21.296;2023-10-08T11:50:16;538.40;2380.80
55008;DHT22;40902;45.116;21.296;2023-10-08T11:52:45;538.50;2380.80
55008;DHT22;40902;45.116;21.296;2023-10-08T11:55:12;538.50;2380.80
55008;DHT22;40902;45.116;21.296;2023-10-08T11:57:49;538.40;2380.80
55008;DHT22;40902;45.116;21.296;2023-10-08T12:00:16;538.40;2380.80
55008;DHT22;40902;45.116;21.296;2023-10-08T12:02:49;538.50;2380.80
55008;DHT22;40902;45.116;21.296;2023-10-08T12:05:15;538.40;2380.80
55008;DHT22;40902;45.116;21.296;2023-10-08T12:07:51;538.50;2380.80
55008;DHT22;40902;45.116;21.296;2023-10-08T12:10:21;538.50;2380.80
55008;DHT22;40902;45.116;21.296;2023-10-08T12:12:50;538.50;2380.80
55008;DHT22;40902;45.116;21.296;2023-10-08T12:15:18;538.50;2406.40
55008;DHT22;40902;45.116;21.296;2023-10-08T12:17:50;538.50;2406.40
55008;DHT22;40902;45.116;21.296;2023-10-08T12:20:40;538.50;2406.40
55008;DHT22;40902;45.116;21.296;2023-10-08T12:23:11;538.50;2406.40
55008;DHT22;40902;45.116;21.296;2023-10-08T12:25:37;538.50;2406.40
55008;DHT22;40902;45.116;21.296;2023-10-08T12:28:03;538.50;2406.40
55008;DHT22;40902;45.116;21.296;2023-10-08T12:30:33;538.50;2406.40
55008;DHT22;40902;45.116;21.296;2023-10-08T12:33:07;538.50;2406.40
55008;DHT22;40902;45.116;21.296;2023-10-08T12:35:39;538.50;2380.80
55008;DHT22;40902;45.116;21.296;2023-10-08T12:38:05;538.50;2380.80
55008;DHT22;40902;45.116;21.296;2023-10-08T12:40:31;563.20;2406.40
55008;DHT22;40902;45.116;21.296;2023-10-08T12:43:16;563.20;2432.00
55008;DHT22;40902;45.116;21.296;2023-10-08T12:45:48;563.20;2406.40
55008;DHT22;40902;45.116;21.296;2023-10-08T12:48:24;563.20;2406.40
55008;DHT22;40902;45.116;21.296;2023-10-08T12:50:52;563.20;2406.40
55008;DHT22;40902;45.116;21.296;2023-10-08T12:53:28;563.20;2406.40
55008;DHT22;40902;45.116;21.296;2023-10-08T12:56:02;563.30;2406.40
55008;DHT22;40902;45.116;21.296;2023-10-08T12:58:36;563.30;2406.40
55008;DHT22;40902;45.116;21.296;2023-10-08T13:01:10;563.30;2406.40
55008;DHT22;40902;45.116;21.296;2023-10-08T13:03:39;563.30;2432.00
55008;DHT22;40902;45.116;21.296;2023-10-08T13:06:09;563.30;2406.40
55008;DHT22;40902;45.116;21.296;2023-10-08T13:08:50;563.30;2406.40
55008;DHT22;40902;45.116;21.296;2023-10-08T13:11:23;563.30;2406.40
55008;DHT22;40902;45.116;21.296;2023-10-08T13:13:52;563.30;2406.40
55008;DHT22;40902;45.116;21.296;2023-10-08T13:16:23;563.30;2406.40
55008;DHT22;40902;45.116;21.296;2023-10-08T13:18:49;563.30;2406.40
55008;DHT22;40902;45.116;21.296;2023-10-08T13:21:16;563.30;2406.40
55008;DHT22;40902;45.116;21.296;2023-10-08T13:23:42;563.30;2406.40
55008;DHT22;40902;45.116;21.296;2023-10-08T13:26:08;563.40;2406.40
55008;DHT22;40902;45.116;21.296;2023-10-08T13:28:35;563.30;2406.40
55008;DHT22;40902;45.116;21.296;2023-10-08T13:31:05;563.30;2406.40
55008;DHT22;40902;45.116;21.296;2023-10-08T13:33:38;563.40;2380.80
55008;DHT22;40902;45.116;21.296;2023-10-08T13:36:11;563.30;2380.80
55008;DHT22;40902;45.116;21.296;2023-10-08T13:38:39;563.30;2406.40
55008;DHT22;40902;45.116;21.296;2023-10-08T13:41:07;563.30;2380.80
55008;DHT22;40902;45.116;21.296;2023-10-08T13:43:47;563.30;2380.80
55008;DHT22;40902;45.116;21.296;2023-10-08T13:46:17;563.40;2380.80
55008;DHT22;40902;45.116;21.296;2023-10-08T13:48:45;563.40;2380.80
55008;DHT22;40902;45.116;21.296;2023-10-08T13:51:18;563.40;2380.80
55008;DHT22;40902;45.116;21.296;2023-10-08T13:53:50;563.40;2380.80
55008;DHT22;40902;45.116;21.296;2023-10-08T13:56:21;563.40;2380.80
55008;DHT22;40902;45.116;21.296;2023-10-08T13:58:54;563.40;2380.80
55008;DHT22;40902;45.116;21.296;2023-10-08T14:01:42;563.40;2380.80
55008;DHT22;40902;45.116;21.296;2023-10-08T14:04:17;563.40;2380.80
55008;DHT22;40902;45.116;21.296;2023-10-08T14:06:45;563.40;2380.80
55008;DHT22;40902;45.116;21.296;2023-10-08T14:09:21;563.40;2380.80
55008;DHT22;40902;45.116;21.296;2023-10-08T14:11:50;563.40;2380.80
55008;DHT22;40902;45.116;21.296;2023-10-08T14:14:18;563.40;2380.80
55008;DHT22;40902;45.116;21.296;2023-10-08T14:16:45;563.40;2380.80
55008;DHT22;40902;45.116;21.296;2023-10-08T14:19:17;563.40;2380.80
55008;DHT22;40902;45.116;21.296;2023-10-08T14:21:46;563.40;2380.80
55008;DHT22;40902;45.116;21.296;2023-10-08T14:24:20;563.40;2380.80
55008;DHT22;40902;45.116;21.296;2023-10-08T14:26:46;563.40;2380.80
55008;DHT22;40902;45.116;21.296;2023-10-08T14:29:20;563.40;2380.80
55008;DHT22;40902;45.116;21.296;2023-10-08T14:31:46;563.40;2380.80
55008;DHT22;40902;45.116;21.296;2023-10-08T14:34:15;563.40;2380.80
55008;DHT22;40902;45.116;21.296;2023-10-08T14:36:47;563.40;2380.80
55008;DHT22;40902;45.116;21.296;2023-10-08T14:39:32;563.40;2380.80
55008;DHT22;40902;45.116;21.296;2023-10-08T14:42:17;563.40;2380.80
55008;DHT22;40902;45.116;21.296;2023-10-08T14:45:02;563.40;2380.80
55008;DHT22;40902;45.116;21.296;2023-10-08T14:47:29;563.40;2380.80
55008;DHT22;40902;45.116;21.296;2023-10-08T14:49:54;563.40;2380.80
55008;DHT22;40902;45.116;21.296;2023-10-08T14:52:21;563.40;2380.80
55008;DHT22;40902;45.116;21.296;2023-10-08T14:54:46;563.40;2380.80
55008;DHT22;40902;45.116;21.296;2023-10-08T14:57:12;563.40;2380.80
55008;DHT22;40902;45.116;21.296;2023-10-08T14:59:41;563.40;2380.80
55008;DHT22;40902;45.116;21.296;2023-10-08T15:02:07;563.40;2380.80
55008;DHT22;40902;45.116;21.296;2023-10-08T15:04:35;563.40;2380.80
55008;DHT22;40902;45.116;21.296;2023-10-08T15:07:05;563.40;2380.80
55008;DHT22;40902;45.116;21.296;2023-10-08T15:09:34;563.40;2380.80
55008;DHT22;40902;45.116;21.296;2023-10-08T15:12:00;563.40;2380.80
55008;DHT22;40902;45.116;21.296;2023-10-08T15:14:27;563.40;2380.80
55008;DHT22;40902;45.116;21.296;2023-10-08T15:16:53;563.40;2380.80
55008;DHT22;40902;45.116;21.296;2023-10-08T15:19:20;563.40;2380.80
55008;DHT22;40902;45.116;21.296;2023-10-08T15:21:51;563.40;2380.80